Time;durP1;ratioP1;P1;durP2;ratioP2;P2;SDS_P1;SDS_P2;PMS_P1;PMS_P2;Temp;Humidity;BMP_temperature;BMP_pressure;BME280_temperature;BME280_humidity;BME280_pressure;Samples;Min_cycle;Max_cycle;Signal;HPM_P1;HPM_P2
2021/04/05 00:03:16;;;;;;;26.33;11.00;;;;;;;4.88;73.01;100414.75;10216777;28;20049;-68
2021/04/05 00:08:12;;;;;;;15.52;9.27;;;;;;;4.88;72.55;100409.31;10205791;28;20041;-70
2021/04/05 00:13:14;;;;;;;27.48;12.10;;;;;;;4.91;73.06;100381.63;10213464;28;20140;-67
2021/04/05 00:18:11;;;;;;;22.10;11.32;;;;;;;4.95;72.62;100358.31;10207681;28;20590;-68
2021/04/05 00:23:08;;;;;;;24.40;11.88;;;;;;;4.91;72.57;100332.88;10207069;28;20408;-67
2021/04/05 00:28:04;;;;;;;22.38;11.68;;;;;;;4.95;72.77;100318.47;10207121;28;20393;-70
2021/04/05 00:33:01;;;;;;;22.60;12.45;;;;;;;4.98;72.04;100317.06;10218744;28;20817;-69
2021/04/05 00:37:57;;;;;;;20.35;11.48;;;;;;;5.00;72.25;100276.94;10209226;28;20107;-70
2021/04/05 00:42:53;;;;;;;27.88;12.30;;;;;;;5.02;72.30;100274.75;10205588;28;20049;-67
2021/04/05 00:47:52;;;;;;;29.45;15.35;;;;;;;5.15;71.93;100246.94;10209534;28;20077;-68
2021/04/05 00:52:51;;;;;;;22.58;12.32;;;;;;;5.10;72.09;100238.88;10210834;28;20099;-68
2021/04/05 00:57:47;;;;;;;31.50;14.25;;;;;;;5.16;71.73;100237.69;10202452;28;20450;-67
2021/04/05 01:07:56;;;;;;;32.40;15.60;;;;;;;5.07;71.96;100215.06;10596741;23;20324;-66
2021/04/05 01:12:53;;;;;;;23.42;13.75;;;;;;;5.01;72.05;100208.09;10126582;28;20061;-66
2021/04/05 01:17:50;;;;;;;24.98;14.55;;;;;;;5.05;71.87;100192.88;10135582;28;20051;-65
2021/04/05 01:22:48;;;;;;;32.45;16.40;;;;;;;5.11;71.67;100170.03;10135317;28;20474;-66
2021/04/05 01:27:45;;;;;;;32.40;15.27;;;;;;;5.10;72.14;100168.41;10137234;28;20665;-66
2021/04/05 01:32:42;;;;;;;32.10;16.25;;;;;;;5.19;72.20;100158.50;10138136;28;20061;-67
2021/04/05 01:37:38;;;;;;;30.92;16.65;;;;;;;5.21;71.90;100131.91;10132290;28;20049;-65
2021/04/05 01:42:33;;;;;;;31.27;14.93;;;;;;;5.22;72.33;100122.69;10137797;28;20133;-65
2021/04/05 01:47:30;;;;;;;21.92;12.13;;;;;;;5.23;72.15;100080.94;10139888;28;20237;-65
2021/04/05 01:52:26;;;;;;;25.80;15.52;;;;;;;5.30;72.07;100090.59;10141563;28;20159;-67
2021/04/05 01:57:22;;;;;;;28.70;15.55;;;;;;;5.30;72.56;100064.28;10136541;28;20058;-67
2021/04/05 02:02:18;;;;;;;27.40;13.32;;;;;;;5.30;72.84;100048.03;10144137;28;20077;-65
2021/04/05 02:07:14;;;;;;;27.05;14.77;;;;;;;5.38;72.53;100019.41;10138897;28;20050;-66
2021/04/05 02:12:10;;;;;;;30.90;13.65;;;;;;;5.32;73.23;100053.16;10145623;28;20058;-66
2021/04/05 02:17:06;;;;;;;30.85;16.25;;;;;;;5.35;73.41;99984.78;10134072;28;20623;-68
2021/04/05 02:22:03;;;;;;;30.33;14.10;;;;;;;5.35;73.69;99963.09;10134481;28;20128;-66
2021/04/05 02:26:59;;;;;;;29.90;14.98;;;;;;;5.35;73.67;99952.25;10147263;28;20077;-66
2021/04/05 02:31:56;;;;;;;29.92;13.30;;;;;;;5.34;73.79;99923.50;10148851;28;20046;-67
2021/04/05 02:36:52;;;;;;;18.90;9.70;;;;;;;5.34;74.05;99929.75;10141194;28;20050;-65
2021/04/05 02:41:49;;;;;;;32.92;17.45;;;;;;;5.30;75.08;99890.81;10138783;28;20993;-65
2021/04/05 02:46:47;;;;;;;28.23;13.23;;;;;;;5.35;75.33;99876.34;10143181;28;20480;-68
2021/04/05 02:51:45;;;;;;;26.25;13.10;;;;;;;5.25;75.88;99867.31;10144711;28;20512;-66
2021/04/05 02:56:42;;;;;;;25.52;12.90;;;;;;;5.26;76.05;99852.66;10145729;28;20038;-69
2021/04/05 03:01:39;;;;;;;29.65;13.13;;;;;;;5.33;76.13;99846.81;10139866;28;20074;-65
2021/04/05 03:06:36;;;;;;;31.02;13.32;;;;;;;5.32;75.92;99833.59;10144474;28;20054;-65
2021/04/05 03:11:34;;;;;;;48.13;14.88;;;;;;;5.27;75.98;99843.44;10142651;28;20046;-65
2021/04/05 03:16:31;;;;;;;33.00;14.02;;;;;;;5.29;76.77;99834.97;10131389;28;20477;-65
2021/04/05 03:21:28;;;;;;;30.33;14.27;;;;;;;5.16;78.47;99820.34;10144223;28;20174;-68
2021/04/05 03:26:24;;;;;;;32.13;13.20;;;;;;;5.05;80.72;99802.69;10148481;28;20069;-70
2021/04/05 03:31:22;;;;;;;34.45;15.32;;;;;;;4.94;82.88;99795.88;10142614;28;20050;-66
2021/04/05 03:36:36;;;;;;;40.42;17.55;;;;;;;4.82;84.95;99791.78;10130056;28;20058;-67
2021/04/05 03:41:46;;;;;;;;;;;;;;;4.77;86.45;99764.81;10142178;28;20235;-66
2021/04/05 03:46:46;;;;;;;39.38;17.98;;;;;;;4.73;86.84;99757.59;10144569;28;19957;-69
2021/04/05 03:51:47;;;;;;;39.67;17.48;;;;;;;4.71;88.11;99754.38;10145068;28;20484;-66
2021/04/05 03:56:51;;;;;;;42.88;19.25;;;;;;;4.71;88.44;99725.41;10137144;28;20046;-68
2021/04/05 04:01:53;;;;;;;40.60;18.55;;;;;;;4.71;88.94;99736.25;10141985;28;20555;-69
2021/04/05 04:07:09;;;;;;;39.15;18.30;;;;;;;4.70;89.98;99734.63;10136436;28;20516;-69
2021/04/05 04:12:09;;;;;;;37.75;19.95;;;;;;;4.71;89.79;99738.94;10142429;28;20135;-68
2021/04/05 04:17:09;;;;;;;26.17;12.20;;;;;;;4.64;90.12;99754.78;10141819;28;20110;-65
2021/04/05 04:22:07;;;;;;;20.90;11.05;;;;;;;4.56;90.99;99801.53;10142716;28;20046;-65
2021/04/05 04:27:04;;;;;;;3.85;1.23;;;;;;;3.98;86.08;99803.59;10135247;28;20046;-64
2021/04/05 04:32:00;;;;;;;3.45;1.00;;;;;;;3.71;86.25;99792.69;10141321;28;20050;-68
2021/04/05 04:37:02;;;;;;;2.42;0.30;;;;;;;3.57;87.51;99785.34;10137827;28;20088;-67
2021/04/05 04:41:58;;;;;;;2.17;0.50;;;;;;;3.45;87.65;99793.06;10142460;28;20042;-69
2021/04/05 04:46:54;;;;;;;2.20;0.47;;;;;;;3.47;87.83;99771.97;10143391;28;20105;-71
2021/04/05 04:51:50;;;;;;;2.50;0.50;;;;;;;3.36;88.17;99781.31;10138677;28;20065;-66
2021/04/05 04:56:46;;;;;;;3.17;0.40;;;;;;;3.37;88.04;99755.94;10140437;28;20058;-65
2021/04/05 05:01:46;;;;;;;8.63;1.70;;;;;;;3.40;88.33;99749.94;10123841;28;20562;-68
2021/04/05 05:06:45;;;;;;;4.32;0.90;;;;;;;3.38;87.60;99746.72;10122707;28;20420;-68
2021/04/05 05:11:41;;;;;;;7.43;1.38;;;;;;;3.42;87.84;99755.84;10128670;28;20043;-64
2021/04/05 05:16:37;;;;;;;6.82;1.30;;;;;;;3.46;88.33;99764.97;10126224;28;21258;-67
2021/04/05 05:21:39;;;;;;;10.75;1.52;;;;;;;3.53;88.42;99775.41;10123459;28;20078;-67
2021/04/05 05:26:36;;;;;;;8.80;1.48;;;;;;;3.47;87.89;99790.88;10134572;28;20096;-68
2021/04/05 05:31:40;;;;;;;5.95;1.20;;;;;;;3.56;87.26;99796.44;10144373;28;20057;-68
2021/04/05 05:36:37;;;;;;;5.32;1.00;;;;;;;3.37;84.04;99799.16;10135113;28;20042;-68
2021/04/05 05:41:39;;;;;;;6.30;1.25;;;;;;;3.38;83.84;99796.16;10147152;28;20116;-69
2021/04/05 05:46:43;;;;;;;7.18;1.17;;;;;;;3.34;82.57;99797.03;10141630;28;20106;-67
2021/04/05 05:52:02;;;;;;;12.02;1.95;;;;;;;3.22;83.02;99802.06;10148950;28;20543;-68
2021/04/05 05:57:09;;;;;;;6.40;0.80;;;;;;;3.03;83.07;99821.75;10139715;28;20077;-66
2021/04/05 06:02:23;;;;;;;5.35;1.48;;;;;;;2.95;82.50;99827.81;10151506;28;20397;-68
2021/04/05 06:07:56;;;;;;;15.18;1.73;;;;;;;2.91;82.84;99840.25;10147483;28;20074;-66
2021/04/05 06:13:10;;;;;;;12.18;1.65;;;;;;;2.77;81.82;99839.34;10151569;28;20042;-65
2021/04/05 06:18:40;;;;;;;3.80;0.80;;;;;;;2.57;82.11;99830.38;10144593;28;20508;-69
2021/04/05 06:23:49;;;;;;;9.00;1.50;;;;;;;2.62;81.79;99822.25;10141364;28;20050;-66
2021/04/05 06:29:16;;;;;;;7.47;1.48;;;;;;;2.62;82.46;99816.84;10141639;28;20512;-68
2021/04/05 06:34:18;;;;;;;8.10;0.80;;;;;;;2.58;81.97;99842.78;10148708;28;20046;-67
2021/04/05 06:39:35;;;;;;;10.52;1.00;;;;;;;2.60;80.62;99850.59;10139268;28;20046;-65
2021/04/05 06:44:45;;;;;;;11.35;1.17;;;;;;;2.55;79.57;99854.13;10144540;28;20191;-63
2021/04/05 06:50:03;;;;;;;7.18;1.20;;;;;;;2.58;79.67;99848.19;10144111;28;20712;-65
2021/04/05 06:55:27;;;;;;;7.32;1.15;;;;;;;2.54;79.74;99839.03;10136655;28;20046;-67
2021/04/05 07:00:40;;;;;;;7.27;1.10;;;;;;;2.24;80.81;99851.72;10126287;28;20452;-65
2021/04/05 07:06:14;;;;;;;9.37;1.23;;;;;;;2.16;80.68;99852.34;10135348;28;20101;-66
2021/04/05 07:11:27;;;;;;;10.77;1.13;;;;;;;2.25;81.66;99844.44;10140041;28;20567;-65
2021/04/05 07:16:41;;;;;;;9.63;1.25;;;;;;;2.55;81.27;99829.84;10133186;28;20048;-68
2021/04/05 07:22:03;;;;;;;10.05;1.15;;;;;;;2.42;80.00;99838.63;10135844;28;20429;-68
2021/04/05 07:27:07;;;;;;;7.97;1.17;;;;;;;2.37;79.65;99842.19;10127821;28;20084;-68
2021/04/05 07:32:14;;;;;;;9.52;1.00;;;;;;;2.14;80.58;99862.63;10127168;28;20440;-68
2021/04/05 07:37:33;;;;;;;6.45;1.30;;;;;;;1.96;81.28;99844.44;10130848;28;20097;-69
2021/04/05 07:42:38;;;;;;;11.68;2.30;;;;;;;2.09;82.10;99841.09;10123229;28;20049;-68
2021/04/05 07:47:55;;;;;;;8.00;1.23;;;;;;;2.23;82.44;99850.13;10127866;28;20074;-68
2021/04/05 07:53:07;;;;;;;6.00;1.17;;;;;;;2.12;81.34;99899.06;10141118;28;20046;-67
2021/04/05 07:58:27;;;;;;;12.07;1.48;;;;;;;2.33;81.94;99868.13;10139902;28;20058;-67
2021/04/05 08:03:45;;;;;;;12.65;1.52;;;;;;;2.47;80.95;99879.06;10132056;28;20073;-67
2021/04/05 08:08:57;;;;;;;10.65;1.27;;;;;;;2.73;77.96;99856.09;10123595;28;20085;-67
2021/04/05 08:14:34;;;;;;;8.23;1.20;;;;;;;2.99;76.72;99880.13;10135520;28;20512;-68
2021/04/05 08:19:54;;;;;;;2.92;0.50;;;;;;;1.51;80.09;99889.44;10139514;28;20043;-67
2021/04/05 08:25:31;;;;;;;2.22;0.32;;;;;;;1.70;78.37;99914.69;10123720;28;20073;-69
2021/04/05 08:30:45;;;;;;;2.13;0.60;;;;;;;1.95;77.74;99915.59;10128659;28;20148;-66
2021/04/05 08:35:48;;;;;;;1.55;0.30;;;;;;;1.78;77.09;99926.75;10118083;28;20050;-66
2021/04/05 08:40:57;;;;;;;3.25;0.35;;;;;;;2.12;77.28;99932.22;10119324;28;20058;-66
2021/04/05 08:46:09;;;;;;;0.93;0.25;;;;;;;2.18;76.91;99960.78;10133640;28;20066;-69
2021/04/05 08:51:10;;;;;;;1.38;0.20;;;;;;;1.88;75.94;99967.97;10113580;28;20050;-66
2021/04/05 08:56:07;;;;;;;3.00;0.60;;;;;;;1.10;79.64;100008.13;10125726;28;20046;-66
2021/04/05 09:01:11;;;;;;;1.17;0.30;;;;;;;0.37;82.50;100036.09;10131259;28;20059;-69
2021/04/05 09:06:13;;;;;;;6.28;1.02;;;;;;;0.86;78.91;100019.44;10123647;28;20074;-69
2021/04/05 09:11:11;;;;;;;7.85;0.73;;;;;;;1.15;74.44;100025.06;10127439;28;20058;-69
2021/04/05 09:16:31;;;;;;;7.10;0.85;;;;;;;1.56;73.24;100032.25;10129302;28;20509;-69
2021/04/05 09:22:00;;;;;;;6.25;0.90;;;;;;;1.89;73.14;100042.34;10140893;28;20046;-69
2021/04/05 09:27:24;;;;;;;13.18;1.42;;;;;;;2.04;69.96;100032.56;10131902;28;20046;-69
2021/04/05 09:32:29;;;;;;;11.60;1.30;;;;;;;2.24;68.01;100037.06;10138121;28;20854;-68
2021/04/05 09:38:07;;;;;;;7.72;1.40;;;;;;;1.95;65.58;100028.84;10137000;28;20046;-68
2021/04/05 09:43:11;;;;;;;12.68;1.48;;;;;;;2.47;65.56;100013.97;10118581;28;20050;-69
2021/04/05 09:48:55;;;;;;;16.58;2.22;;;;;;;3.01;65.64;100023.78;10134446;28;20155;-69
2021/04/05 09:54:20;;;;;;;15.63;1.33;;;;;;;3.01;60.00;100007.56;10085937;28;20145;-70
2021/04/05 09:59:27;;;;;;;9.43;1.40;;;;;;;2.90;57.76;100027.66;10131663;28;20448;-69
2021/04/05 10:04:25;;;;;;;17.93;1.63;;;;;;;2.80;52.92;100027.75;10133745;28;20049;-69
2021/04/05 10:09:28;;;;;;;7.50;1.17;;;;;;;3.50;52.38;100025.44;10128705;28;20140;-70
2021/04/05 10:14:25;;;;;;;12.90;1.63;;;;;;;3.96;45.77;100027.59;10136028;28;20081;-70
2021/04/05 10:19:27;;;;;;;7.10;1.30;;;;;;;3.49;44.78;100029.25;10122012;28;20453;-69
2021/04/05 10:24:24;;;;;;;7.13;1.40;;;;;;;3.62;44.72;100016.13;10137132;28;20085;-69
2021/04/05 10:29:25;;;;;;;8.70;1.30;;;;;;;3.81;45.97;100014.28;10137259;28;20070;-70
2021/04/05 10:34:26;;;;;;;9.73;1.75;;;;;;;3.67;42.69;100014.19;10135133;28;20046;-69
2021/04/05 10:39:23;;;;;;;5.40;0.88;;;;;;;4.24;41.20;100011.53;10131439;28;20077;-69
2021/04/05 10:44:22;;;;;;;5.75;1.52;;;;;;;4.58;39.73;100011.28;10137748;28;20092;-69
2021/04/05 10:49:26;;;;;;;9.50;1.45;;;;;;;5.43;42.38;100020.13;10137437;28;20043;-70
2021/04/05 10:54:27;;;;;;;;;;;;;;;6.02;41.16;100022.25;10127107;28;20062;-69
2021/04/05 10:59:33;;;;;;;6.50;1.40;;;;;;;7.12;39.52;100018.28;10124544;28;19960;-70
2021/04/05 11:04:33;;;;;;;6.85;0.90;;;;;;;6.68;36.45;100041.66;10139055;28;20050;-71
2021/04/05 11:09:31;;;;;;;9.82;1.30;;;;;;;5.81;33.82;100073.38;10136226;28;20046;-70
2021/04/05 11:14:27;;;;;;;5.30;0.63;;;;;;;5.80;34.01;100041.91;10132969;28;20117;-71
2021/04/05 11:19:49;;;;;;;9.65;1.50;;;;;;;5.90;34.11;100039.81;10133617;28;20130;-70
2021/04/05 11:24:53;;;;;;;6.22;1.15;;;;;;;6.02;35.18;100052.09;10133186;28;20054;-70
2021/04/05 11:29:53;;;;;;;4.80;0.75;;;;;;;4.87;35.70;100047.41;10136050;28;20083;-71
2021/04/05 11:34:53;;;;;;;5.68;0.60;;;;;;;4.55;39.77;100073.34;10137257;28;20058;-70
2021/04/05 11:40:17;;;;;;;6.13;1.55;;;;;;;4.81;41.38;100074.56;10123969;28;20054;-70
2021/04/05 11:45:16;;;;;;;4.88;0.77;;;;;;;5.27;43.09;100098.22;10128080;28;20055;-71
2021/04/05 11:50:15;;;;;;;7.88;1.27;;;;;;;5.55;43.86;100098.28;10123080;28;20747;-70
2021/04/05 11:55:20;;;;;;;6.30;0.82;;;;;;;5.21;40.01;100096.69;10124056;28;20708;-70
2021/04/05 12:00:23;;;;;;;7.93;0.93;;;;;;;6.43;39.73;100081.88;10118946;28;20046;-70
2021/04/05 12:05:30;;;;;;;2.67;1.00;;;;;;;6.88;37.51;100090.09;10122429;28;20096;-70
2021/04/05 12:10:28;;;;;;;5.43;0.85;;;;;;;7.12;38.61;100080.81;10117730;28;20069;-70
2021/04/05 12:15:26;;;;;;;9.65;1.60;;;;;;;4.47;51.77;100128.16;10125742;28;20046;-70
2021/04/05 12:20:26;;;;;;;2.92;0.68;;;;;;;3.34;55.82;100129.38;10126743;28;20054;-69
2021/04/05 12:25:34;;;;;;;4.82;0.68;;;;;;;4.09;52.14;100149.75;10134915;28;20088;-71
2021/04/05 12:30:32;;;;;;;4.90;0.30;;;;;;;4.34;51.26;100146.72;10130793;28;20050;-69
2021/04/05 12:35:30;;;;;;;4.78;0.73;;;;;;;5.67;48.40;100136.56;10134224;28;20058;-69
2021/04/05 12:40:31;;;;;;;8.48;1.42;;;;;;;6.09;47.24;100107.56;10118891;28;20051;-70
2021/04/05 12:45:31;;;;;;;12.40;1.50;;;;;;;4.00;58.74;100142.25;10132547;28;20618;-70
2021/04/05 12:50:33;;;;;;;9.40;1.20;;;;;;;5.40;55.43;100131.06;10127079;28;20065;-70
2021/04/05 12:55:35;;;;;;;5.05;0.70;;;;;;;5.61;50.85;100128.81;10125806;28;20444;-70
2021/04/05 13:00:31;;;;;;;4.50;0.95;;;;;;;5.04;53.27;100123.53;10127490;28;20050;-70
2021/04/05 13:05:44;;;;;;;10.32;0.50;;;;;;;2.97;67.30;100174.00;10127118;28;20468;-70
2021/04/05 13:11:02;;;;;;;8.80;1.52;;;;;;;2.63;67.36;100142.31;10119949;28;20095;-70
2021/04/05 13:16:13;;;;;;;7.97;1.02;;;;;;;1.47;73.91;100261.81;10127954;28;20043;-69
2021/04/05 13:21:33;;;;;;;7.63;0.60;;;;;;;0.78;79.13;100189.53;10122153;28;20109;-69
2021/04/05 13:26:35;;;;;;;2.75;0.47;;;;;;;0.79;78.31;100174.97;10117184;28;20051;-69
2021/04/05 13:31:32;;;;;;;3.78;0.63;;;;;;;1.21;75.75;100160.53;10119138;28;20441;-69
2021/04/05 13:36:29;;;;;;;1.15;0.20;;;;;;;3.17;67.67;100149.50;10136764;28;20057;-68
2021/04/05 13:41:30;;;;;;;2.67;0.52;;;;;;;4.23;63.06;100134.41;10132033;28;20046;-67
2021/04/05 13:46:26;;;;;;;5.10;0.80;;;;;;;5.36;60.21;100113.78;10132623;28;20058;-67
2021/04/05 13:51:35;;;;;;;8.15;1.00;;;;;;;5.56;55.34;100121.56;10132748;28;20043;-68
2021/04/05 13:56:35;;;;;;;4.07;0.60;;;;;;;4.68;56.44;100134.09;10127560;28;20054;-69
2021/04/05 14:01:32;;;;;;;7.75;1.25;;;;;;;4.64;56.95;100125.72;10139817;28;20049;-70
2021/04/05 14:06:33;;;;;;;10.05;1.75;;;;;;;3.52;63.23;100136.78;10138495;28;20046;-70
2021/04/05 14:11:52;;;;;;;9.32;1.17;;;;;;;3.13;66.79;100140.38;10143963;28;20045;-70
2021/04/05 14:16:54;;;;;;;10.85;1.83;;;;;;;3.28;65.45;100125.13;10135239;28;20113;-69
2021/04/05 14:22:04;;;;;;;17.42;1.52;;;;;;;3.99;61.05;100113.59;10141416;28;20046;-71
2021/04/05 14:27:05;;;;;;;12.13;1.77;;;;;;;5.03;56.43;100111.06;10143938;28;20050;-71
2021/04/05 14:32:06;;;;;;;11.57;1.63;;;;;;;4.36;55.91;100122.88;10149304;28;20467;-70
2021/04/05 14:37:15;;;;;;;21.27;2.97;;;;;;;4.42;56.95;100140.66;10141729;28;20104;-69
2021/04/05 14:42:16;;;;;;;10.88;1.52;;;;;;;4.46;56.11;100121.13;10141816;28;20109;-69
2021/04/05 14:47:15;;;;;;;10.05;1.65;;;;;;;3.04;60.71;100163.69;10131000;28;20555;-69
2021/04/05 14:52:11;;;;;;;7.32;1.25;;;;;;;3.17;57.71;100179.22;10133102;28;20422;-69
2021/04/05 14:57:10;;;;;;;4.35;1.13;;;;;;;3.12;54.22;100163.06;10138280;28;20042;-70
2021/04/05 15:02:09;;;;;;;6.00;1.10;;;;;;;3.39;55.02;100175.31;10134864;28;20473;-70
2021/04/05 15:07:13;;;;;;;8.75;1.65;;;;;;;4.03;54.76;100156.28;10139189;28;20077;-70
2021/04/05 15:12:13;;;;;;;4.90;1.00;;;;;;;4.32;54.51;100146.22;10136832;28;20144;-70
2021/04/05 15:17:13;;;;;;;10.65;1.35;;;;;;;4.45;52.38;100141.97;10139852;28;20047;-70
2021/04/05 15:22:17;;;;;;;14.32;1.58;;;;;;;4.77;49.79;100140.47;10133029;28;20471;-70
2021/04/05 15:27:16;;;;;;;4.15;0.73;;;;;;;4.39;50.36;100176.44;10138676;28;20506;-69
2021/04/05 15:32:13;;;;;;;10.73;2.33;;;;;;;4.37;51.73;100162.38;10147349;28;20066;-69
2021/04/05 15:37:12;;;;;;;12.27;2.63;;;;;;;5.33;51.02;100182.16;10136466;28;20054;-68
2021/04/05 15:42:15;;;;;;;11.60;1.30;;;;;;;5.30;52.10;100156.44;10127130;28;20054;-70
2021/04/05 15:47:20;;;;;;;10.23;2.03;;;;;;;5.84;49.24;100175.88;10134934;28;21404;-68
2021/04/05 15:52:18;;;;;;;13.93;1.50;;;;;;;5.66;48.79;100185.66;10137255;28;20108;-71
2021/04/05 15:57:26;;;;;;;16.25;1.27;;;;;;;5.20;46.25;100184.53;10131027;28;20042;-71
2021/04/05 16:02:30;;;;;;;9.18;1.77;;;;;;;4.78;43.42;100202.47;10130234;28;20078;-69
2021/04/05 16:07:35;;;;;;;;;;;;;;;4.97;46.05;100177.28;10128590;28;20054;-71
2021/04/05 16:12:37;;;;;;;9.15;1.33;;;;;;;4.76;46.71;100184.91;10126335;28;20502;-69
2021/04/05 16:17:51;;;;;;;7.82;1.63;;;;;;;5.43;45.74;100199.06;10140685;28;20058;-71
2021/04/05 16:22:52;;;;;;;;;;;;;;;5.48;44.90;100200.91;10136471;28;20050;-69
2021/04/05 16:27:55;;;;;;;8.15;1.25;;;;;;;5.47;43.84;100218.25;10138030;28;19937;-70
2021/04/05 16:32:51;;;;;;;10.82;1.48;;;;;;;5.67;44.13;100209.78;10141534;28;20054;-69
2021/04/05 16:37:47;;;;;;;9.93;1.25;;;;;;;5.78;44.18;100209.59;10134975;28;20062;-69
2021/04/05 16:42:53;;;;;;;13.93;1.73;;;;;;;5.29;46.21;100219.88;10128002;28;20062;-70
2021/04/05 16:47:52;;;;;;;10.88;1.42;;;;;;;4.96;46.66;100238.78;10129132;28;20050;-70
2021/04/05 16:52:55;;;;;;;16.00;1.67;;;;;;;5.01;46.65;100235.19;10111979;28;20061;-71
2021/04/05 16:58:01;;;;;;;12.03;2.13;;;;;;;4.88;49.52;100242.16;10127191;28;20518;-68
2021/04/05 17:03:02;;;;;;;15.93;2.03;;;;;;;4.22;51.46;100262.69;10126794;28;20139;-70
2021/04/05 17:08:12;;;;;;;15.68;2.22;;;;;;;4.22;51.88;100257.25;10129546;28;20050;-71
2021/04/05 17:13:11;;;;;;;17.08;2.95;;;;;;;4.38;51.13;100277.66;10126369;28;20046;-70
2021/04/05 17:18:09;;;;;;;16.85;2.55;;;;;;;4.11;52.79;100272.00;10132829;28;20050;-70
2021/04/05 17:23:10;;;;;;;11.85;1.48;;;;;;;4.04;53.00;100293.16;10127624;28;20097;-69
2021/04/05 17:28:08;;;;;;;19.65;2.75;;;;;;;3.84;54.12;100291.44;10126605;28;20072;-69
2021/04/05 17:33:13;;;;;;;21.58;2.35;;;;;;;3.64;53.74;100289.69;10121945;28;20047;-69
2021/04/05 17:38:20;;;;;;;13.25;1.70;;;;;;;3.42;53.93;100296.34;10118988;28;20046;-70
2021/04/05 17:43:21;;;;;;;12.25;1.95;;;;;;;3.49;53.49;100304.16;10127254;28;20077;-69
2021/04/05 17:49:07;;;;;;;16.45;3.08;;;;;;;3.44;52.10;100302.28;10135005;28;20097;-70
2021/04/05 17:54:15;;;;;;;12.02;1.73;;;;;;;3.25;49.87;100314.81;10079832;28;20619;-70
2021/04/05 17:59:18;;;;;;;12.68;1.75;;;;;;;3.33;50.39;100311.53;10130127;28;20054;-70
2021/04/05 18:05:02;;;;;;;18.08;2.35;;;;;;;3.17;52.92;100313.50;10126168;28;20046;-70
2021/04/05 18:10:31;;;;;;;11.73;1.90;;;;;;;3.16;53.83;100328.13;10136581;28;20479;-69
2021/04/05 18:15:41;;;;;;;12.48;1.75;;;;;;;3.07;55.28;100329.78;10128097;28;20474;-69
2021/04/05 18:21:05;;;;;;;12.02;2.33;;;;;;;3.03;56.62;100329.50;10142498;28;20046;-69
2021/04/05 18:26:26;;;;;;;11.52;2.20;;;;;;;3.09;56.72;100339.22;10132339;28;20396;-70
2021/04/05 18:31:36;;;;;;;19.65;2.60;;;;;;;3.03;56.87;100329.50;10147112;28;20141;-70
2021/04/05 18:36:42;;;;;;;21.13;3.75;;;;;;;3.07;57.38;100335.97;10125734;28;20050;-70
2021/04/05 18:41:41;;;;;;;15.32;2.08;;;;;;;3.01;56.08;100357.88;10134200;28;20842;-69
2021/04/05 18:47:01;;;;;;;10.30;2.25;;;;;;;2.93;56.69;100361.97;10127513;28;20053;-69
2021/04/05 18:52:13;;;;;;;13.15;1.50;;;;;;;2.84;57.20;100363.63;10136576;28;20474;-69
2021/04/05 18:57:11;;;;;;;13.27;2.10;;;;;;;2.86;57.45;100372.25;10129243;28;20050;-69
2021/04/05 19:02:08;;;;;;;15.05;2.47;;;;;;;2.82;58.24;100368.47;10132164;28;20452;-70
2021/04/05 19:07:16;;;;;;;20.85;2.40;;;;;;;2.85;58.51;100376.03;10135948;28;20062;-69
2021/04/05 19:12:35;;;;;;;18.20;2.92;;;;;;;2.61;59.14;100376.63;10123626;28;20101;-69
2021/04/05 19:18:00;;;;;;;13.82;2.25;;;;;;;2.66;59.42;100390.09;10131078;28;20077;-70
2021/04/05 19:23:08;;;;;;;16.67;2.55;;;;;;;2.41;60.31;100411.72;10082059;28;20050;-69
2021/04/05 19:28:22;;;;;;;14.40;2.00;;;;;;;2.46;60.54;100395.53;10135817;28;20047;-69
2021/04/05 19:33:39;;;;;;;10.80;1.60;;;;;;;2.42;62.21;100391.78;10137847;28;20065;-69
2021/04/05 19:39:12;;;;;;;12.95;3.03;;;;;;;2.29;62.13;100402.00;10139352;28;20053;-69
2021/04/05 19:44:40;;;;;;;19.60;2.75;;;;;;;2.30;61.69;100402.84;10129929;28;20165;-69
2021/04/05 19:50:12;;;;;;;17.38;1.95;;;;;;;2.08;61.83;100408.50;10104801;28;20534;-69
2021/04/05 19:55:49;;;;;;;11.40;1.73;;;;;;;2.18;61.50;100389.63;10120177;28;20043;-69
2021/04/05 20:00:57;;;;;;;13.77;1.73;;;;;;;2.04;62.16;100415.50;10124712;28;20076;-68
2021/04/05 20:06:01;;;;;;;12.43;1.80;;;;;;;2.08;61.97;100421.97;10128353;28;20104;-68
2021/04/05 20:11:08;;;;;;;;;;;;;;;1.94;62.57;100418.19;10132823;28;21565;-68
2021/04/05 20:16:16;;;;;;;12.57;1.95;;;;;;;1.80;63.30;100417.88;10140571;28;19929;-68
2021/04/05 20:21:17;;;;;;;9.60;1.48;;;;;;;1.46;68.21;100435.31;10140265;28;20093;-68
2021/04/05 20:26:20;;;;;;;8.38;1.15;;;;;;;1.20;69.75;100433.59;10139432;28;20043;-69
2021/04/05 20:31:25;;;;;;;14.65;1.95;;;;;;;1.26;70.33;100421.78;10142482;28;20042;-69
2021/04/05 20:36:26;;;;;;;17.30;2.15;;;;;;;1.30;70.59;100417.47;10135434;28;20074;-70
2021/04/05 20:41:52;;;;;;;11.35;2.28;;;;;;;1.25;70.32;100412.03;10130450;28;20061;-68
2021/04/05 20:46:54;;;;;;;15.43;2.70;;;;;;;1.37;69.65;100418.03;10119712;28;20074;-69
2021/04/05 20:51:55;;;;;;;11.07;1.67;;;;;;;1.35;68.53;100422.88;10137636;28;20046;-68
2021/04/05 20:57:00;;;;;;;18.35;2.28;;;;;;;1.29;68.42;100410.47;10146156;28;20097;-68
2021/04/05 21:01:59;;;;;;;15.15;2.40;;;;;;;1.33;68.01;100422.34;10141911;28;20074;-70
2021/04/05 21:06:55;;;;;;;17.63;2.53;;;;;;;1.29;68.19;100413.16;10134871;28;20050;-69
2021/04/05 21:12:04;;;;;;;14.15;3.00;;;;;;;1.25;69.11;100425.50;10143081;28;20097;-69
2021/04/05 21:17:05;;;;;;;10.70;2.17;;;;;;;0.96;70.11;100423.22;10133935;28;20042;-69
2021/04/05 21:22:05;;;;;;;10.65;1.60;;;;;;;0.84;72.03;100419.94;10148445;28;20042;-68
2021/04/05 21:27:13;;;;;;;14.02;1.50;;;;;;;0.71;72.44;100417.69;10138149;28;20097;-69
2021/04/05 21:32:15;;;;;;;11.93;1.73;;;;;;;0.73;72.56;100418.25;10147002;28;20129;-68
2021/04/05 21:37:24;;;;;;;14.48;2.28;;;;;;;0.49;73.65;100402.50;10139426;28;20074;-70
2021/04/05 21:42:39;;;;;;;15.48;1.67;;;;;;;0.64;73.53;100404.47;10140540;28;20451;-67
2021/04/05 21:47:41;;;;;;;10.60;1.30;;;;;;;0.49;74.06;100407.03;10138447;28;20583;-70
2021/04/05 21:52:39;;;;;;;14.00;1.98;;;;;;;0.51;74.40;100410.28;10139883;28;20046;-69
2021/04/05 21:57:40;;;;;;;9.55;1.10;;;;;;;0.23;75.56;100419.47;10144033;28;20105;-69
2021/04/05 22:02:40;;;;;;;8.90;2.45;;;;;;;0.28;74.84;100417.66;10128008;28;20389;-70
2021/04/05 22:07:38;;;;;;;5.50;1.38;;;;;;;-0.11;76.39;100431.28;10129700;28;20437;-69
2021/04/05 22:12:34;;;;;;;13.20;1.70;;;;;;;-0.02;75.94;100437.03;10136788;28;20170;-69
2021/04/05 22:17:32;;;;;;;10.20;2.13;;;;;;;0.02;76.23;100430.06;10145747;28;20046;-69
2021/04/05 22:22:28;;;;;;;7.53;1.30;;;;;;;0.03;76.21;100425.50;10148906;28;20050;-69
2021/04/05 22:27:25;;;;;;;8.00;1.60;;;;;;;-0.03;76.68;100432.69;10142054;28;20128;-70
2021/04/05 22:32:24;;;;;;;18.42;2.03;;;;;;;-0.12;77.04;100426.16;10147624;28;20046;-70
2021/04/05 22:37:31;;;;;;;9.45;1.88;;;;;;;-0.23;77.17;100436.00;10145142;28;20129;-69
2021/04/05 22:42:34;;;;;;;6.72;1.42;;;;;;;-0.21;78.01;100431.16;10144401;28;20050;-69
2021/04/05 22:47:32;;;;;;;;;;;;;;;-0.26;77.98;100431.94;10142957;28;20043;-69
2021/04/05 22:53:05;;;;;;;13.07;1.85;;;;;;;-0.19;77.96;100439.00;10147964;28;20375;-69
2021/04/05 22:58:05;;;;;;;11.70;1.90;;;;;;;-0.18;78.04;100429.88;10147266;28;20055;-70
2021/04/05 23:03:11;;;;;;;8.85;1.52;;;;;;;-0.27;78.49;100438.38;10150891;28;20051;-69
2021/04/05 23:58:26;;;;;;;12.40;1.70;;;;;;;-0.11;79.31;100435.88;10131270;28;20039;-70
